Research Triangle Park, North Carolina
Current Conditions -  °F | °C
As of 10:51 AM on Friday 31 Oct 2014 (Local Time) from KRDU Reporting Station
Scattered Clouds Scattered Clouds  
Wind Chill: 54°   Ceiling: Unl
Heat Index: 54°   Visibility: 10mi
Dew Point: 42°   Wind: 5mph
Humidity: 64%   Direction: 50°NE
Pressure: 29.95"   Gusts: NA
Location:  35.9144°N, 78.8655°W
Report Text: KRDU 311451Z 05004KT 10SM FEW180 SCT250 12/06 A2995 RMK AO2 SLP141 T01220056 58003
Loading
Personal Weather Stations






























Interactive Weather Map New forecast layout! Learn more

10-Day Weather Forecast

Advertisements
Track Severe Weather on mobile